createdAt,value
2022-09-29T00:00:43.521Z,26.25
2022-09-29T00:03:10.941Z,26.33
2022-09-29T00:05:38.345Z,25.33
2022-09-29T00:08:05.725Z,24.88
2022-09-29T00:10:33.103Z,26.95
2022-09-29T00:13:01.883Z,24.10
2022-09-29T00:15:29.220Z,27.48
2022-09-29T00:18:13.250Z,22.02
2022-09-29T00:20:41.706Z,24.83
2022-09-29T00:23:09.117Z,26.75
2022-09-29T00:25:36.505Z,24.90
2022-09-29T00:28:05.316Z,23.98
2022-09-29T00:30:32.693Z,24.90
2022-09-29T00:33:00.018Z,27.23
2022-09-29T00:35:27.363Z,24.23
2022-09-29T00:37:54.705Z,24.10
2022-09-29T00:40:22.064Z,27.33
2022-09-29T00:42:49.435Z,25.63
2022-09-29T00:45:21.432Z,27.20
2022-09-29T00:48:00.237Z,23.27
2022-09-29T00:50:38.183Z,26.60
2022-09-29T00:53:05.591Z,24.80
2022-09-29T00:55:38.572Z,26.83
2022-09-29T00:58:12.519Z,26.52
2022-09-29T01:00:41.525Z,24.27
2022-09-29T01:03:13.598Z,22.73
2022-09-29T01:05:45.990Z,22.60
2022-09-29T01:08:17.798Z,22.83
2022-09-29T01:10:47.656Z,20.98
2022-09-29T01:13:15.147Z,23.13
2022-09-29T01:15:43.963Z,21.90
2022-09-29T01:18:11.603Z,20.20
2022-09-29T01:20:47.037Z,20.65
2022-09-29T01:23:43.811Z,20.33
2022-09-29T01:26:38.776Z,23.23
2022-09-29T01:29:47.181Z,18.45
2022-09-29T01:32:23.044Z,18.77
2022-09-29T01:35:00.252Z,20.80
2022-09-29T01:37:38.452Z,20.10
2022-09-29T01:40:14.120Z,19.63
2022-09-29T01:42:49.069Z,18.90
2022-09-29T01:45:23.104Z,18.55
2022-09-29T01:47:56.558Z,21.52
2022-09-29T01:50:27.779Z,17.92
2022-09-29T01:53:03.447Z,19.52
2022-09-29T01:55:33.712Z,19.58
2022-09-29T01:58:05.379Z,17.73
2022-09-29T02:00:41.648Z,18.52
2022-09-29T02:03:15.275Z,19.65
2022-09-29T02:05:48.285Z,21.77
2022-09-29T02:08:21.451Z,17.83
2022-09-29T02:10:55.215Z,18.23
2022-09-29T02:13:24.893Z,16.73
2022-09-29T02:15:55.838Z,16.38
2022-09-29T02:18:30.842Z,16.90
2022-09-29T02:20:58.292Z,25.60
2022-09-29T02:23:25.713Z,18.42
2022-09-29T02:25:55.793Z,20.83
2022-09-29T02:28:23.519Z,17.98
2022-09-29T02:30:51.565Z,18.40
2022-09-29T02:33:20.664Z,15.52
2022-09-29T02:35:59.277Z,17.27
2022-09-29T02:38:35.751Z,13.95
2022-09-29T02:41:11.761Z,15.45
2022-09-29T02:44:05.421Z,14.63
2022-09-29T02:46:47.927Z,14.32
2022-09-29T02:49:31.331Z,13.13
2022-09-29T02:52:09.786Z,16.75
2022-09-29T02:54:51.977Z,11.50
2022-09-29T02:57:26.439Z,16.15
2022-09-29T03:00:01.676Z,14.65
2022-09-29T03:02:29.057Z,13.70
2022-09-29T03:04:56.457Z,14.02
2022-09-29T03:07:25.387Z,16.73
2022-09-29T03:09:52.775Z,13.60
2022-09-29T03:12:20.108Z,13.98
2022-09-29T03:14:47.454Z,9.98
2022-09-29T03:17:14.846Z,12.90
2022-09-29T03:19:42.174Z,14.05
2022-09-29T03:22:09.599Z,12.80
2022-09-29T03:24:38.461Z,12.32
2022-09-29T03:27:05.805Z,12.47
2022-09-29T03:29:33.143Z,11.98
2022-09-29T03:32:00.580Z,11.95
2022-09-29T03:34:27.957Z,13.38
2022-09-29T03:36:55.334Z,11.30
2022-09-29T03:39:22.813Z,11.75
2022-09-29T03:41:52.345Z,10.73
2022-09-29T03:44:19.717Z,11.32
2022-09-29T03:46:47.550Z,12.15
2022-09-29T03:49:15.133Z,12.73
2022-09-29T03:51:42.794Z,13.55
2022-09-29T03:54:10.525Z,10.85
2022-09-29T03:56:38.091Z,14.13
2022-09-29T03:59:07.419Z,13.05
2022-09-29T04:01:34.914Z,15.52
2022-09-29T04:04:02.399Z,13.80
2022-09-29T04:06:29.750Z,13.20
2022-09-29T04:08:57.191Z,14.70
2022-09-29T04:11:24.645Z,15.73
2022-09-29T04:13:51.991Z,13.95
2022-09-29T04:16:20.852Z,14.02
2022-09-29T04:18:48.310Z,17.00
2022-09-29T04:21:16.380Z,11.60
2022-09-29T04:23:43.731Z,18.50
2022-09-29T04:26:11.300Z,14.85
2022-09-29T04:28:39.405Z,15.85
2022-09-29T04:31:07.286Z,13.52
2022-09-29T04:33:36.160Z,16.85
2022-09-29T04:36:04.324Z,13.73
2022-09-29T04:38:31.842Z,16.48
2022-09-29T04:40:59.278Z,22.23
2022-09-29T04:43:26.907Z,16.15
2022-09-29T04:46:02.242Z,16.35
2022-09-29T04:48:32.527Z,20.13
2022-09-29T04:51:05.024Z,19.25
2022-09-29T04:53:32.383Z,16.50
2022-09-29T04:56:00.020Z,19.13
2022-09-29T04:58:27.382Z,20.55
2022-09-29T05:00:54.767Z,18.52
2022-09-29T05:03:22.115Z,21.67
2022-09-29T05:05:49.463Z,20.15
2022-09-29T05:08:18.255Z,18.88
2022-09-29T05:10:45.596Z,18.23
2022-09-29T05:13:12.969Z,19.05
2022-09-29T05:15:40.292Z,20.20
2022-09-29T05:18:07.659Z,22.20
2022-09-29T05:21:15.809Z,22.13
2022-09-29T05:23:42.518Z,22.17
2022-09-29T05:26:12.102Z,18.80
2022-09-29T05:28:43.093Z,21.13
2022-09-29T05:31:11.512Z,19.08
2022-09-29T05:33:39.205Z,17.30
2022-09-29T05:36:08.650Z,18.13
2022-09-29T05:38:36.750Z,19.75
2022-09-29T05:41:07.088Z,16.05
2022-09-29T05:43:34.505Z,18.38
2022-09-29T05:46:02.261Z,20.67
2022-09-29T06:03:14.198Z,20.80
2022-09-29T06:05:41.819Z,17.15
2022-09-29T06:08:09.234Z,20.95
2022-09-29T06:10:36.560Z,22.48
2022-09-29T06:13:03.878Z,19.98
2022-09-29T06:15:31.259Z,24.77
2022-09-29T06:17:59.265Z,19.52
2022-09-29T06:20:28.205Z,20.00
2022-09-29T06:22:56.178Z,28.05
2022-09-29T06:25:23.783Z,21.58
2022-09-29T06:27:52.191Z,18.90
2022-09-29T06:30:19.548Z,19.15
2022-09-29T06:32:47.055Z,21.80
2022-09-29T06:35:14.613Z,20.45
2022-09-29T06:37:45.614Z,18.02
2022-09-29T06:40:14.477Z,19.98
2022-09-29T06:42:41.883Z,24.07
2022-09-29T06:45:11.424Z,22.25
2022-09-29T06:47:38.857Z,54.40
2022-09-29T06:50:12.330Z,33.25
2022-09-29T06:52:50.336Z,23.73
2022-09-29T06:55:23.369Z,22.85
2022-09-29T06:57:50.753Z,27.85
2022-09-29T07:00:18.770Z,23.83
2022-09-29T07:02:46.479Z,32.28
2022-09-29T07:05:14.046Z,28.83
2022-09-29T07:07:41.508Z,23.15
2022-09-29T07:10:10.632Z,31.23
2022-09-29T07:12:38.056Z,28.90
2022-09-29T07:15:06.112Z,30.73
2022-09-29T07:17:33.600Z,28.10
2022-09-29T07:20:01.356Z,19.88
2022-09-29T07:22:29.879Z,29.00
2022-09-29T07:24:59.713Z,24.17
2022-09-29T07:27:28.622Z,29.65
2022-09-29T07:30:03.679Z,26.43
2022-09-29T07:32:32.119Z,27.80
2022-09-29T07:34:59.684Z,30.85
2022-09-29T07:37:27.357Z,25.35
2022-09-29T07:39:55.006Z,26.08
2022-09-29T07:42:22.497Z,29.90
2022-09-29T07:44:56.697Z,31.40
2022-09-29T07:47:24.359Z,20.80
2022-09-29T07:49:51.778Z,20.58
2022-09-29T07:52:19.179Z,24.10
2022-09-29T07:54:46.689Z,22.33
2022-09-29T07:57:14.226Z,24.10
2022-09-29T07:59:48.384Z,19.42
2022-09-29T08:02:20.121Z,24.67
2022-09-29T08:04:47.731Z,27.10
2022-09-29T08:07:15.176Z,27.50
2022-09-29T08:09:42.536Z,25.83
2022-09-29T08:12:10.062Z,26.02
2022-09-29T08:14:40.748Z,23.35
2022-09-29T08:17:11.517Z,25.50
2022-09-29T08:19:40.454Z,27.52
2022-09-29T08:22:07.834Z,22.87
2022-09-29T08:24:35.388Z,22.38
2022-09-29T08:27:14.623Z,22.83
2022-09-29T08:29:46.773Z,21.00
2022-09-29T08:32:15.114Z,23.15
2022-09-29T08:34:44.056Z,33.13
2022-09-29T08:37:11.403Z,22.40
2022-09-29T08:39:38.885Z,21.15
2022-09-29T08:42:15.409Z,23.65
2022-09-29T08:44:49.797Z,21.50
2022-09-29T08:47:32.148Z,21.13
2022-09-29T08:50:14.779Z,18.17
2022-09-29T08:52:52.052Z,19.55
2022-09-29T08:55:31.091Z,19.67
2022-09-29T08:58:01.378Z,21.15
2022-09-29T09:00:35.622Z,17.17
2022-09-29T09:03:17.724Z,15.68
2022-09-29T09:06:05.803Z,20.42
2022-09-29T09:08:57.380Z,18.38
2022-09-29T09:11:44.188Z,16.50
2022-09-29T09:14:27.428Z,15.40
2022-09-29T09:17:06.129Z,20.25
2022-09-29T09:19:47.111Z,17.45
2022-09-29T09:22:22.257Z,18.77
2022-09-29T09:24:56.435Z,20.08
2022-09-29T09:27:26.912Z,18.80
2022-09-29T09:30:03.639Z,18.45
2022-09-29T09:32:34.397Z,17.80
2022-09-29T09:35:23.520Z,16.83
2022-09-29T09:40:25.371Z,14.65
2022-09-29T09:43:03.578Z,18.10
2022-09-29T09:45:36.536Z,18.30
2022-09-29T09:48:12.127Z,17.88
2022-09-29T09:50:42.062Z,18.77
2022-09-29T09:53:16.317Z,22.75
2022-09-29T09:55:45.180Z,18.52
2022-09-29T09:58:34.475Z,19.63
2022-09-29T10:01:04.073Z,24.27
2022-09-29T10:05:59.480Z,23.35
2022-09-29T10:08:30.561Z,21.42
2022-09-29T10:11:00.028Z,20.73
2022-09-29T10:13:29.054Z,21.20
2022-09-29T10:16:01.677Z,26.77
2022-09-29T10:18:36.519Z,21.20
2022-09-29T10:21:04.125Z,22.73
2022-09-29T10:23:34.276Z,20.58
2022-09-29T10:26:08.553Z,22.55
2022-09-29T10:28:45.742Z,23.67
2022-09-29T10:31:22.825Z,18.73
2022-09-29T10:33:54.666Z,21.95
2022-09-29T10:36:23.964Z,24.58
2022-09-29T10:38:54.327Z,23.48
2022-09-29T10:43:49.740Z,17.50
2022-09-29T10:46:38.935Z,17.48
2022-09-29T10:49:13.512Z,18.88
2022-09-29T10:51:42.820Z,21.08
2022-09-29T10:54:16.567Z,23.38
2022-09-29T10:56:48.777Z,21.52
2022-09-29T10:59:17.762Z,22.95
2022-09-29T11:01:48.726Z,26.45
2022-09-29T11:04:20.942Z,20.02
2022-09-29T11:06:49.608Z,21.25
2022-09-29T11:09:38.457Z,23.77
2022-09-29T11:12:12.300Z,30.17
2022-09-29T11:14:43.258Z,21.58
2022-09-29T11:17:25.723Z,27.08
2022-09-29T11:19:55.195Z,27.92
2022-09-29T11:22:52.163Z,26.20
2022-09-29T11:25:46.212Z,26.75
2022-09-29T11:28:40.612Z,30.60
2022-09-29T11:31:23.931Z,31.23
2022-09-29T11:34:03.693Z,38.33
2022-09-29T11:39:13.186Z,36.67
2022-09-29T11:41:59.674Z,29.13
2022-09-29T11:44:44.145Z,35.38
2022-09-29T11:47:24.528Z,41.03
2022-09-29T11:50:10.809Z,33.92
2022-09-29T11:52:57.460Z,32.63
2022-09-29T11:55:59.191Z,38.88
2022-09-29T11:58:51.952Z,30.85
2022-09-29T12:01:31.277Z,36.65
2022-09-29T12:04:17.885Z,34.47
2022-09-29T12:06:56.857Z,33.17
2022-09-29T12:09:41.171Z,37.60
2022-09-29T12:12:23.751Z,31.00
2022-09-29T12:15:12.648Z,38.58
2022-09-29T12:17:44.795Z,29.45
2022-09-29T12:20:19.573Z,33.67
2022-09-29T12:22:49.217Z,30.67
2022-09-29T12:25:18.524Z,32.00
2022-09-29T12:27:48.503Z,32.60
2022-09-29T12:30:23.237Z,32.47
2022-09-29T12:32:54.921Z,34.30
2022-09-29T12:35:31.769Z,29.52
2022-09-29T12:38:08.636Z,23.85
2022-09-29T12:40:38.990Z,23.45
2022-09-29T12:43:13.859Z,21.98
2022-09-29T12:45:52.094Z,22.83
2022-09-29T12:48:46.241Z,28.60
2022-09-29T12:51:20.765Z,27.50
2022-09-29T12:54:00.363Z,31.08
2022-09-29T12:56:30.864Z,29.80
2022-09-29T12:59:03.916Z,31.42
2022-09-29T13:01:35.212Z,35.22
2022-09-29T13:04:39.644Z,35.05
2022-09-29T13:07:43.513Z,34.42
2022-09-29T13:10:37.613Z,34.92
2022-09-29T13:13:39.807Z,35.08
2022-09-29T13:16:18.507Z,35.67
2022-09-29T13:19:23.073Z,35.97
2022-09-29T13:22:09.556Z,30.58
2022-09-29T13:24:52.369Z,35.42
2022-09-29T13:27:28.967Z,31.50
2022-09-29T13:30:02.060Z,29.27
2022-09-29T13:32:31.059Z,31.80
2022-09-29T13:35:01.992Z,30.13
2022-09-29T13:37:45.876Z,28.25
2022-09-29T13:40:25.005Z,29.10
2022-09-29T13:42:54.712Z,29.55
2022-09-29T13:48:47.148Z,27.48
2022-09-29T13:51:43.479Z,33.15
2022-09-29T13:54:21.956Z,29.77
2022-09-29T13:56:51.569Z,26.90
2022-09-29T13:59:25.016Z,27.85
2022-09-29T14:01:53.370Z,23.98
2022-09-29T14:04:44.640Z,22.15
2022-09-29T14:07:34.460Z,24.58
2022-09-29T14:10:14.954Z,20.40
2022-09-29T14:12:47.285Z,27.13
2022-09-29T14:15:19.554Z,20.60
2022-09-29T14:17:52.334Z,24.15
2022-09-29T14:20:23.311Z,20.55
2022-09-29T14:23:03.829Z,23.63
2022-09-29T14:25:51.068Z,23.42
2022-09-29T14:28:21.602Z,26.27
2022-09-29T14:30:51.710Z,19.98
2022-09-29T14:33:23.175Z,24.15
2022-09-29T14:36:01.591Z,20.35
2022-09-29T14:38:33.785Z,23.23
2022-09-29T14:41:03.365Z,21.65
2022-09-29T14:43:39.467Z,21.15
2022-09-29T14:46:49.245Z,22.55
2022-09-29T14:52:07.082Z,22.48
2022-09-29T14:54:45.270Z,21.30
2022-09-29T14:57:27.174Z,25.23
2022-09-29T15:00:04.751Z,24.08
2022-09-29T15:02:34.666Z,22.98
2022-09-29T15:05:12.823Z,18.35
2022-09-29T15:07:42.000Z,23.40
2022-09-29T15:10:24.688Z,21.33
2022-09-29T15:12:52.612Z,19.67
2022-09-29T15:15:37.822Z,21.63
2022-09-29T15:18:21.609Z,20.65
2022-09-29T15:21:00.349Z,18.40
2022-09-29T15:24:02.167Z,21.10
2022-09-29T15:26:33.714Z,18.50
2022-09-29T15:29:01.487Z,23.52
2022-09-29T15:31:32.045Z,19.60
2022-09-29T15:33:59.914Z,20.60
2022-09-29T15:36:32.744Z,18.27
2022-09-29T15:39:05.012Z,20.52
2022-09-29T15:41:35.522Z,22.17
2022-09-29T15:44:11.904Z,21.45
2022-09-29T15:46:41.001Z,20.25
2022-09-29T15:49:15.734Z,18.00
2022-09-29T15:51:45.204Z,20.25
2022-09-29T15:54:14.339Z,19.77
2022-09-29T15:56:43.325Z,22.40
2022-09-29T15:59:18.982Z,24.00
2022-09-29T16:01:46.686Z,16.85
2022-09-29T16:04:14.199Z,19.60
2022-09-29T16:06:44.544Z,20.33
2022-09-29T16:09:19.003Z,19.75
2022-09-29T16:11:48.108Z,20.45
2022-09-29T16:14:22.054Z,19.70
2022-09-29T16:16:51.790Z,19.20
2022-09-29T16:21:52.843Z,16.73
2022-09-29T16:24:21.996Z,17.10
2022-09-29T16:26:52.959Z,17.83
2022-09-29T16:29:28.774Z,17.98
2022-09-29T16:31:57.984Z,17.80
2022-09-29T16:34:32.863Z,19.08
2022-09-29T16:37:03.980Z,20.05
2022-09-29T16:39:33.011Z,19.88
2022-09-29T16:42:04.043Z,18.20
2022-09-29T16:44:34.172Z,20.35
2022-09-29T16:47:04.538Z,17.75
2022-09-29T16:49:35.186Z,18.67
2022-09-29T16:52:12.740Z,19.75
2022-09-29T16:54:42.905Z,18.15
2022-09-29T16:57:19.799Z,15.98
2022-09-29T16:59:48.689Z,19.45
2022-09-29T17:02:16.419Z,19.35
2022-09-29T17:04:43.843Z,18.60
2022-09-29T17:07:15.391Z,17.02
2022-09-29T17:09:49.229Z,18.27
2022-09-29T17:12:18.877Z,16.58
2022-09-29T17:14:46.691Z,21.80
2022-09-29T17:17:20.190Z,22.02
2022-09-29T17:19:47.573Z,16.67
2022-09-29T17:22:31.576Z,21.02
2022-09-29T17:24:59.300Z,20.08
2022-09-29T17:27:29.251Z,22.67
2022-09-29T17:29:56.680Z,18.98
2022-09-29T17:32:24.602Z,20.83
2022-09-29T17:34:52.011Z,20.88
2022-09-29T17:37:19.885Z,18.63
2022-09-29T17:39:47.415Z,22.67
2022-09-29T17:42:14.862Z,18.33
2022-09-29T17:44:43.795Z,19.40
2022-09-29T17:47:27.198Z,20.30
2022-09-29T17:49:55.600Z,16.63
2022-09-29T17:52:23.416Z,21.98
2022-09-29T17:54:51.293Z,22.67
2022-09-29T17:57:24.266Z,21.45
2022-09-29T17:59:53.128Z,20.45
2022-09-29T18:02:20.679Z,19.83
2022-09-29T18:04:48.152Z,20.33
2022-09-29T18:07:15.532Z,23.65
2022-09-29T18:09:43.124Z,22.55
2022-09-29T18:12:10.880Z,19.20
2022-09-29T18:14:38.312Z,23.10
2022-09-29T18:17:07.401Z,22.58
2022-09-29T18:19:35.763Z,19.27
2022-09-29T18:22:03.182Z,19.85
2022-09-29T18:24:30.771Z,19.35
2022-09-29T18:26:58.679Z,20.50
2022-09-29T18:29:26.613Z,19.25
2022-09-29T18:31:54.152Z,23.35
2022-09-29T18:34:23.145Z,19.58
2022-09-29T18:36:50.638Z,21.45
2022-09-29T18:39:18.116Z,19.63
2022-09-29T18:41:45.551Z,20.52
2022-09-29T18:44:14.652Z,17.77
2022-09-29T18:46:43.360Z,18.00
2022-09-29T18:49:14.953Z,20.30
2022-09-29T18:51:43.833Z,23.27
2022-09-29T18:54:11.254Z,20.38
2022-09-29T18:56:38.776Z,22.73
2022-09-29T18:59:06.171Z,22.85
2022-09-29T19:01:33.985Z,20.70
2022-09-29T19:04:02.258Z,17.90
2022-09-29T19:06:29.656Z,17.55
2022-09-29T19:08:58.535Z,18.17
2022-09-29T19:11:26.829Z,17.63
2022-09-29T19:13:54.860Z,18.65
2022-09-29T19:16:22.885Z,16.20
2022-09-29T19:18:50.643Z,18.63
2022-09-29T19:21:18.073Z,15.70
2022-09-29T19:23:45.556Z,14.15
2022-09-29T19:26:16.280Z,15.38
2022-09-29T19:28:44.202Z,13.60
2022-09-29T19:31:13.384Z,14.48
2022-09-29T19:33:42.487Z,14.15
2022-09-29T19:36:14.698Z,17.77
2022-09-29T19:38:42.127Z,18.63
2022-09-29T19:41:16.104Z,16.85
2022-09-29T19:43:43.644Z,13.05
2022-09-29T19:46:11.909Z,15.85
2022-09-29T19:48:39.807Z,14.75
2022-09-29T19:51:07.173Z,13.15
2022-09-29T19:53:35.357Z,13.13
2022-09-29T19:56:08.282Z,13.93
2022-09-29T19:58:37.727Z,15.50
2022-09-29T20:01:05.793Z,16.90
2022-09-29T20:03:33.303Z,15.60
2022-09-29T20:06:02.202Z,14.38
2022-09-29T20:08:29.762Z,13.93
2022-09-29T20:11:06.224Z,15.25
2022-09-29T20:13:33.602Z,16.60
2022-09-29T20:16:03.183Z,18.17
2022-09-29T20:18:30.582Z,16.60
2022-09-29T20:20:57.918Z,19.90
2022-09-29T20:23:25.278Z,15.88
2022-09-29T20:25:59.444Z,18.45
2022-09-29T20:28:26.938Z,17.00
2022-09-29T20:30:58.052Z,14.23
2022-09-29T20:33:27.200Z,17.45
2022-09-29T20:35:55.038Z,15.73
2022-09-29T20:38:22.439Z,15.48
2022-09-29T20:40:49.942Z,16.08
2022-09-29T20:43:17.310Z,17.58
2022-09-29T20:45:44.649Z,17.85
2022-09-29T20:48:12.007Z,17.08
2022-09-29T20:50:40.994Z,18.52
2022-09-29T20:53:08.364Z,18.45
2022-09-29T20:55:35.705Z,19.65
2022-09-29T20:58:03.072Z,19.00
2022-09-29T21:00:30.407Z,19.13
2022-09-29T21:02:57.795Z,18.35
2022-09-29T21:05:25.376Z,18.80
2022-09-29T21:07:54.181Z,17.25
2022-09-29T21:10:21.559Z,15.85
2022-09-29T21:12:48.955Z,16.45
2022-09-29T21:15:16.397Z,17.70
2022-09-29T21:17:43.779Z,15.48
2022-09-29T21:20:11.158Z,14.65
2022-09-29T21:22:38.547Z,16.50
2022-09-29T21:25:07.956Z,19.08
2022-09-29T21:27:38.571Z,17.80
2022-09-29T21:30:09.634Z,15.88
2022-09-29T21:32:37.012Z,16.48
2022-09-29T21:35:04.941Z,17.67
2022-09-29T21:37:32.323Z,14.55
2022-09-29T21:39:59.765Z,18.20
2022-09-29T21:42:28.617Z,15.30
2022-09-29T21:44:58.037Z,18.93
2022-09-29T21:47:25.649Z,17.40
2022-09-29T21:49:53.036Z,13.73
2022-09-29T21:52:20.417Z,15.30
2022-09-29T21:54:47.801Z,15.20
2022-09-29T21:57:15.182Z,14.65
2022-09-29T21:59:44.453Z,15.05
2022-09-29T22:02:11.926Z,15.40
2022-09-29T22:04:39.390Z,14.02
2022-09-29T22:07:06.760Z,14.07
2022-09-29T22:09:34.245Z,14.18
2022-09-29T22:12:02.113Z,12.43
2022-09-29T22:14:29.667Z,14.25
2022-09-29T22:16:58.505Z,16.98
2022-09-29T22:19:25.905Z,13.23
2022-09-29T22:21:54.306Z,16.13
2022-09-29T22:24:21.748Z,15.75
2022-09-29T22:26:49.232Z,16.40
2022-09-29T22:29:16.608Z,13.60
2022-09-29T22:31:44.043Z,13.02
2022-09-29T22:34:12.981Z,15.85
2022-09-29T22:36:40.345Z,13.90
2022-09-29T22:39:07.797Z,15.65
2022-09-29T22:41:35.513Z,14.00
2022-09-29T22:44:03.022Z,13.98
2022-09-29T22:46:31.217Z,13.93
2022-09-29T22:48:58.905Z,14.20
2022-09-29T22:51:27.981Z,15.32
2022-09-29T22:53:55.346Z,14.52
2022-09-29T22:56:24.383Z,14.75
2022-09-29T22:58:51.711Z,15.15
2022-09-29T23:01:19.287Z,15.98
2022-09-29T23:03:47.489Z,14.00
2022-09-29T23:06:15.094Z,14.55
2022-09-29T23:08:44.135Z,14.40
2022-09-29T23:11:16.415Z,17.02
2022-09-29T23:13:44.302Z,13.95
2022-09-29T23:16:14.233Z,16.42
2022-09-29T23:18:42.274Z,15.98
2022-09-29T23:21:10.306Z,14.88
2022-09-29T23:23:37.662Z,17.63
2022-09-29T23:26:06.849Z,16.70
2022-09-29T23:28:35.492Z,15.10
2022-09-29T23:31:04.024Z,17.38
2022-09-29T23:33:31.567Z,17.85
2022-09-29T23:36:06.248Z,14.63
2022-09-29T23:38:33.630Z,17.40
2022-09-29T23:41:01.234Z,15.07
2022-09-29T23:43:29.998Z,15.18
2022-09-29T23:45:57.357Z,18.85
2022-09-29T23:48:24.719Z,15.82
2022-09-29T23:50:52.076Z,12.77
2022-09-29T23:53:19.418Z,14.45
2022-09-29T23:55:46.753Z,18.15
2022-09-29T23:58:14.091Z,18.60
